createdAt,value
2018-06-19T02:23:19.743Z,1006.95
2018-06-19T02:24:19.356Z,1006.96
2018-06-19T02:25:19.475Z,1006.94
2018-06-19T02:26:19.360Z,1006.94
2018-06-19T02:27:19.292Z,1006.99
2018-06-19T02:28:19.198Z,1006.92
2018-06-19T02:29:19.220Z,1006.95
2018-06-19T02:30:19.177Z,1006.95
2018-06-19T02:31:19.163Z,1006.95
2018-06-19T02:32:19.165Z,1006.90
2018-06-19T02:33:19.160Z,1006.95
2018-06-19T02:34:19.220Z,1006.95
2018-06-19T02:35:19.759Z,1006.96
2018-06-19T02:36:19.149Z,1006.93
2018-06-19T02:37:19.113Z,1006.91
2018-06-19T02:38:19.102Z,1006.96
2018-06-19T02:39:19.080Z,1006.97
2018-06-19T02:40:19.110Z,1006.96
2018-06-19T02:41:19.066Z,1007.01
2018-06-19T02:42:19.048Z,1006.98
2018-06-19T02:43:19.044Z,1006.96
2018-06-19T02:44:19.029Z,1006.96
2018-06-19T02:45:19.177Z,1007.00
2018-06-19T02:46:19.021Z,1006.96
2018-06-19T02:47:19.026Z,1006.94
2018-06-19T02:48:18.985Z,1006.96
2018-06-19T02:49:18.980Z,1006.94
2018-06-19T02:50:18.975Z,1006.94
2018-06-19T02:51:19.112Z,1006.93
2018-06-19T02:52:18.954Z,1006.93
2018-06-19T02:53:18.944Z,1006.95
2018-06-19T02:54:18.931Z,1006.94
2018-06-19T02:55:18.939Z,1006.95
2018-06-19T02:56:18.923Z,1006.91
2018-06-19T02:57:19.235Z,1006.92
2018-06-19T02:58:18.898Z,1006.90
2018-06-19T02:59:18.892Z,1006.90
2018-06-19T03:00:18.916Z,1006.90
2018-06-19T03:01:18.884Z,1006.91
2018-06-19T03:02:18.855Z,1006.91
2018-06-19T03:03:18.858Z,1006.93
2018-06-19T03:04:18.844Z,1006.90
2018-06-19T03:05:18.824Z,1006.96
2018-06-19T03:06:18.817Z,1006.97
2018-06-19T03:07:18.812Z,1007.03
2018-06-19T03:08:18.867Z,1007.07
2018-06-19T03:09:18.846Z,1007.06
2018-06-19T03:10:18.776Z,1007.10
2018-06-19T03:11:18.773Z,1007.09
2018-06-19T03:12:18.758Z,1007.09
2018-06-19T03:13:18.777Z,1007.10
2018-06-19T03:14:19.094Z,1007.13
2018-06-19T03:15:18.724Z,1007.18
2018-06-19T03:16:18.717Z,1007.14
2018-06-19T03:17:18.714Z,1007.16
2018-06-19T03:18:18.710Z,1007.13
2018-06-19T03:19:18.690Z,1007.12
2018-06-19T03:20:18.689Z,1007.11
2018-06-19T03:21:18.669Z,1007.09
2018-06-19T03:22:18.651Z,1007.07
2018-06-19T03:23:18.651Z,1007.11
2018-06-19T03:24:18.689Z,1007.12
2018-06-19T03:25:18.642Z,1007.14
2018-06-19T03:26:18.631Z,1007.14
2018-06-19T03:27:18.603Z,1007.12
2018-06-19T03:28:18.630Z,1007.15
2018-06-19T03:29:18.588Z,1007.11
2018-06-19T03:30:18.619Z,1007.09
2018-06-19T03:31:19.016Z,1007.12
2018-06-19T03:32:18.573Z,1007.12
2018-06-19T03:33:18.872Z,1007.11
2018-06-19T03:34:18.560Z,1007.16
2018-06-19T03:35:18.583Z,1007.17
2018-06-19T03:36:18.551Z,1007.17
2018-06-19T03:37:18.555Z,1007.20
2018-06-19T03:38:18.513Z,1007.19
2018-06-19T03:39:18.498Z,1007.18
2018-06-19T03:40:18.493Z,1007.11
2018-06-19T03:41:23.166Z,1007.15
2018-06-19T03:42:18.457Z,1007.24
2018-06-19T03:43:18.689Z,1007.22
2018-06-19T03:44:18.641Z,1007.27
2018-06-19T03:45:18.751Z,1007.25
2018-06-19T03:46:18.425Z,1007.25
2018-06-19T03:47:18.531Z,1007.27
2018-06-19T03:48:18.399Z,1007.29
2018-06-19T03:49:18.400Z,1007.31
2018-06-19T03:50:18.407Z,1007.30
2018-06-19T03:51:18.409Z,1007.32
2018-06-19T03:52:18.397Z,1007.32
2018-06-19T03:53:18.516Z,1007.34
2018-06-19T03:54:18.363Z,1007.35
2018-06-19T03:55:18.355Z,1007.36
2018-06-19T03:56:18.340Z,1007.36
2018-06-19T03:57:18.451Z,1007.36
2018-06-19T03:58:18.307Z,1007.38
2018-06-19T03:59:18.722Z,1007.39
2018-06-19T04:00:18.327Z,1007.37
2018-06-19T04:01:18.289Z,1007.37
2018-06-19T04:02:18.280Z,1007.38
2018-06-19T04:03:18.321Z,1007.40
2018-06-19T04:04:18.276Z,1007.39
2018-06-19T04:05:18.807Z,1007.40
2018-06-19T04:06:18.279Z,1007.36
2018-06-19T04:07:18.227Z,1007.36
2018-06-19T04:08:18.201Z,1007.37
2018-06-19T04:09:18.209Z,1007.38
2018-06-19T04:10:18.260Z,1007.39
2018-06-19T04:11:18.178Z,1007.44
2018-06-19T04:12:18.171Z,1007.43
2018-06-19T04:13:19.394Z,1007.42
2018-06-19T04:14:18.156Z,1007.48
2018-06-19T04:15:18.184Z,1007.43
2018-06-19T04:16:18.205Z,1007.44
2018-06-19T04:17:18.250Z,1007.40
2018-06-19T04:18:18.116Z,1007.43
2018-06-19T04:19:18.109Z,1007.48
2018-06-19T04:20:18.101Z,1007.50
2018-06-19T04:21:18.087Z,1007.47
2018-06-19T04:22:18.101Z,1007.45
2018-06-19T04:23:18.160Z,1007.51
2018-06-19T04:24:18.062Z,1007.47
2018-06-19T04:25:18.119Z,1007.47
2018-06-19T04:26:18.916Z,1007.49
2018-06-19T04:31:21.819Z,1007.48
2018-06-19T04:32:13.743Z,1007.49
2018-06-19T04:33:18.915Z,1007.49
2018-06-19T04:34:13.768Z,1007.49
2018-06-19T04:35:11.892Z,1007.46
2018-06-19T04:36:11.882Z,1007.48
2018-06-19T04:37:11.853Z,1007.43
2018-06-19T04:38:11.861Z,1007.42
2018-06-19T04:39:11.978Z,1007.42
2018-06-19T04:40:12.010Z,1007.40
2018-06-19T04:41:11.830Z,1007.37
2018-06-19T04:42:11.839Z,1007.45
2018-06-19T04:43:11.825Z,1007.46
2018-06-19T04:44:11.902Z,1007.51
2018-06-19T04:45:11.862Z,1007.49
2018-06-19T04:46:11.933Z,1007.56
2018-06-19T04:47:11.762Z,1007.54
2018-06-19T04:48:11.779Z,1007.57
2018-06-19T04:49:11.728Z,1007.49
2018-06-19T04:50:11.734Z,1007.52
2018-06-19T04:51:11.780Z,1007.54
2018-06-19T04:52:11.759Z,1007.53
2018-06-19T04:53:11.722Z,1007.54
2018-06-19T04:54:12.224Z,1007.51
2018-06-19T04:55:11.682Z,1007.55
2018-06-19T04:56:12.555Z,1007.53
2018-06-19T04:57:11.673Z,1007.54
2018-06-19T04:58:11.657Z,1007.51
2018-06-19T04:59:11.639Z,1007.59
2018-06-19T05:00:11.640Z,1007.56
2018-06-19T05:01:11.618Z,1007.60
2018-06-19T05:02:12.589Z,1007.58
2018-06-19T05:03:11.592Z,1007.62
2018-06-19T05:04:11.610Z,1007.61
2018-06-19T05:05:11.575Z,1007.62
2018-06-19T05:06:11.569Z,1007.63
2018-06-19T05:07:11.623Z,1007.64
2018-06-19T05:08:11.545Z,1007.64
2018-06-19T05:09:11.542Z,1007.62
2018-06-19T05:10:11.541Z,1007.66
2018-06-19T05:11:11.548Z,1007.59
2018-06-19T05:12:11.516Z,1007.63
2018-06-19T05:13:11.543Z,1007.59
2018-06-19T05:14:12.692Z,1007.64
2018-06-19T05:15:11.484Z,1007.63
2018-06-19T05:16:11.468Z,1007.63
2018-06-19T05:17:11.478Z,1007.67
2018-06-19T05:18:11.453Z,1007.65
2018-06-19T05:19:11.531Z,1007.67
2018-06-19T05:20:11.437Z,1007.68
2018-06-19T05:21:11.428Z,1007.68
2018-06-19T05:22:11.422Z,1007.67
2018-06-19T05:23:11.431Z,1007.66
2018-06-19T05:24:11.387Z,1007.68
2018-06-19T05:25:11.447Z,1007.73
2018-06-19T05:26:11.499Z,1007.72
2018-06-19T05:27:11.465Z,1007.74
2018-06-19T05:28:11.347Z,1007.72
2018-06-19T05:29:11.355Z,1007.70
2018-06-19T05:30:11.337Z,1007.73
2018-06-19T05:31:11.333Z,1007.73
2018-06-19T05:32:11.521Z,1007.73
2018-06-19T05:33:11.298Z,1007.74
2018-06-19T05:34:11.316Z,1007.78
2018-06-19T05:35:11.300Z,1007.79
2018-06-19T05:36:11.279Z,1007.85
2018-06-19T05:37:11.307Z,1007.82
2018-06-19T05:38:11.277Z,1007.86
2018-06-19T05:39:11.267Z,1007.88
2018-06-19T05:40:11.275Z,1007.87
2018-06-19T05:41:11.224Z,1007.89
2018-06-19T05:42:11.667Z,1007.90
2018-06-19T05:43:11.876Z,1007.90
2018-06-19T05:44:11.216Z,1007.91
2018-06-19T05:45:11.198Z,1007.87
2018-06-19T05:46:11.243Z,1007.85
2018-06-19T05:47:11.192Z,1007.86
2018-06-19T05:48:13.760Z,1007.88
2018-06-19T05:49:11.158Z,1007.95
2018-06-19T05:50:11.183Z,1007.93
2018-06-19T05:51:11.139Z,1007.97
2018-06-19T05:52:11.199Z,1007.97
2018-06-19T05:53:11.119Z,1007.94
2018-06-19T05:54:11.166Z,1007.97
2018-06-19T05:55:11.136Z,1007.96
2018-06-19T05:56:11.216Z,1007.96
2018-06-19T05:57:11.239Z,1008.03
2018-06-19T05:58:11.216Z,1008.02
2018-06-19T05:59:11.068Z,1007.97
2018-06-19T06:00:11.088Z,1007.98
2018-06-19T06:01:11.074Z,1008.02
2018-06-19T06:02:11.354Z,1008.01
2018-06-19T06:03:11.268Z,1008.02
2018-06-19T06:04:11.160Z,1008.02
2018-06-19T06:05:11.001Z,1008.04
2018-06-19T06:06:10.997Z,1008.02
2018-06-19T06:07:10.988Z,1008.02
2018-06-19T06:08:11.002Z,1007.97
2018-06-19T06:09:10.976Z,1008.03
2018-06-19T06:10:10.959Z,1008.10
2018-06-19T06:11:11.006Z,1008.08
2018-06-19T06:12:10.923Z,1008.12
2018-06-19T06:13:10.938Z,1008.12
2018-06-19T06:14:10.912Z,1008.08
2018-06-19T06:15:10.896Z,1008.07
2018-06-19T06:16:10.947Z,1008.09
2018-06-19T06:17:10.894Z,1008.15
2018-06-19T06:18:10.876Z,1008.14
2018-06-19T06:19:10.898Z,1008.21
2018-06-19T06:20:10.849Z,1008.20
2018-06-19T06:21:10.887Z,1008.19
2018-06-19T06:22:10.915Z,1008.23
2018-06-19T06:23:10.834Z,1008.23
2018-06-19T06:24:10.829Z,1008.28
2018-06-19T06:25:10.811Z,1008.26
2018-06-19T06:26:10.837Z,1008.24
2018-06-19T06:27:11.489Z,1008.26
2018-06-19T06:28:10.785Z,1008.27
2018-06-19T06:29:10.767Z,1008.24
2018-06-19T06:30:10.823Z,1008.28
2018-06-19T06:31:10.780Z,1008.27
2018-06-19T06:32:10.768Z,1008.29
2018-06-19T06:33:10.774Z,1008.34
2018-06-19T06:34:10.720Z,1008.35
2018-06-19T06:35:10.727Z,1008.37
2018-06-19T06:36:10.908Z,1008.37
2018-06-19T06:37:11.008Z,1008.34
2018-06-19T06:38:10.701Z,1008.35
2018-06-19T06:39:10.715Z,1008.36
2018-06-19T06:40:10.678Z,1008.36
2018-06-19T06:41:11.280Z,1008.31
2018-06-19T06:42:10.705Z,1008.29
2018-06-19T06:43:10.871Z,1008.26
2018-06-19T06:44:10.620Z,1008.27
2018-06-19T06:45:10.630Z,1008.31
2018-06-19T06:46:10.658Z,1008.28
2018-06-19T06:47:10.602Z,1008.28
2018-06-19T06:48:10.595Z,1008.33
2018-06-19T06:49:10.847Z,1008.28
2018-06-19T06:50:10.589Z,1008.33
2018-06-19T06:51:11.277Z,1008.30
2018-06-19T06:52:10.569Z,1008.28
2018-06-19T06:53:10.553Z,1008.29
2018-06-19T06:54:10.831Z,1008.27
2018-06-19T06:55:10.528Z,1008.20
2018-06-19T06:56:10.519Z,1008.28
2018-06-19T06:57:10.526Z,1008.30
2018-06-19T06:58:10.497Z,1008.28
2018-06-19T06:59:10.491Z,1008.26
2018-06-19T07:00:10.511Z,1008.25
2018-06-19T07:01:10.479Z,1008.29
2018-06-19T07:02:10.469Z,1008.29
2018-06-19T07:03:10.452Z,1008.32
2018-06-19T07:04:10.443Z,1008.28
2018-06-19T07:05:10.471Z,1008.28
2018-06-19T07:06:11.308Z,1008.32
2018-06-19T07:07:10.444Z,1008.28
2018-06-19T07:08:10.420Z,1008.27
2018-06-19T07:09:10.455Z,1008.30
2018-06-19T07:10:10.452Z,1008.32
2018-06-19T07:11:10.410Z,1008.34
2018-06-19T07:12:10.373Z,1008.37
2018-06-19T07:13:10.367Z,1008.32
2018-06-19T07:14:10.356Z,1008.36
2018-06-19T07:15:10.368Z,1008.38
2018-06-19T07:16:10.499Z,1008.40
2018-06-19T07:17:10.329Z,1008.37
2018-06-19T07:18:10.389Z,1008.41
2018-06-19T07:19:10.397Z,1008.40
2018-06-19T07:20:10.311Z,1008.39
2018-06-19T07:21:10.313Z,1008.48
2018-06-19T07:22:10.304Z,1008.47
2018-06-19T07:23:10.310Z,1008.45
2018-06-19T07:24:10.282Z,1008.47
2018-06-19T07:25:10.268Z,1008.47
2018-06-19T07:26:10.269Z,1008.47
2018-06-19T07:27:10.273Z,1008.54
2018-06-19T07:28:10.234Z,1008.49
2018-06-19T07:29:10.330Z,1008.55
2018-06-19T07:30:10.235Z,1008.53
2018-06-19T07:31:10.203Z,1008.51
2018-06-19T07:32:10.209Z,1008.51
2018-06-19T07:33:10.213Z,1008.52
2018-06-19T07:34:10.194Z,1008.49
2018-06-19T07:35:10.209Z,1008.51
2018-06-19T07:36:10.157Z,1008.51
2018-06-19T07:37:10.157Z,1008.59
2018-06-19T07:38:10.242Z,1008.63
2018-06-19T07:39:10.183Z,1008.49
2018-06-19T07:40:10.140Z,1008.64
2018-06-19T07:41:10.134Z,1008.65
2018-06-19T07:42:10.123Z,1008.67
2018-06-19T07:43:10.116Z,1008.75
2018-06-19T07:44:10.158Z,1008.75
2018-06-19T07:45:10.098Z,1008.82
2018-06-19T07:46:10.092Z,1008.72
2018-06-19T07:47:10.081Z,1008.83
2018-06-19T07:48:10.060Z,1008.83
2018-06-19T07:49:10.087Z,1008.83
2018-06-19T07:50:10.052Z,1008.88
2018-06-19T07:51:10.067Z,1008.87
2018-06-19T07:52:10.036Z,1008.90
2018-06-19T07:53:10.078Z,1008.92
2018-06-19T07:54:10.019Z,1008.87
2018-06-19T07:55:10.013Z,1008.90
2018-06-19T07:56:10.007Z,1008.92
2018-06-19T07:57:09.994Z,1008.93
2018-06-19T07:58:09.988Z,1009.00
2018-06-19T07:59:09.967Z,1009.01
2018-06-19T08:00:09.963Z,1008.99
2018-06-19T08:01:10.103Z,1008.97
2018-06-19T08:02:09.949Z,1008.93
2018-06-19T08:03:09.937Z,1008.99
2018-06-19T08:04:09.939Z,1008.97
2018-06-19T08:05:09.921Z,1008.96
2018-06-19T08:06:10.002Z,1008.94
2018-06-19T08:07:09.894Z,1009.03
2018-06-19T08:08:09.899Z,1008.94
2018-06-19T08:09:09.886Z,1009.00
2018-06-19T08:10:09.869Z,1009.01
2018-06-19T08:11:09.865Z,1009.00
2018-06-19T08:12:10.014Z,1008.95
2018-06-19T08:13:09.847Z,1008.99
2018-06-19T08:14:09.831Z,1008.99
2018-06-19T08:15:09.831Z,1008.96
2018-06-19T08:16:09.832Z,1008.99
2018-06-19T08:17:09.811Z,1009.00
2018-06-19T08:18:09.858Z,1009.03
2018-06-19T08:19:09.794Z,1009.01
2018-06-19T08:20:09.788Z,1008.99
2018-06-19T08:21:09.773Z,1009.02
2018-06-19T08:22:09.783Z,1009.05
2018-06-19T08:23:09.763Z,1009.02
2018-06-19T08:24:09.783Z,1009.04
2018-06-19T08:25:09.751Z,1009.09
2018-06-19T08:26:09.753Z,1009.09
2018-06-19T08:27:09.738Z,1009.06
2018-06-19T08:28:09.730Z,1009.08
2018-06-19T08:29:09.751Z,1009.07
2018-06-19T08:30:09.716Z,1009.07
2018-06-19T08:31:09.897Z,1009.07
2018-06-19T08:32:09.823Z,1009.13
2018-06-19T08:33:10.091Z,1009.13
2018-06-19T08:34:09.710Z,1009.13
2018-06-19T08:35:09.661Z,1009.13
2018-06-19T08:36:09.670Z,1009.17
2018-06-19T08:37:09.645Z,1009.15
2018-06-19T08:38:09.639Z,1009.16
2018-06-19T08:39:09.634Z,1009.15
2018-06-19T08:40:09.782Z,1009.17
2018-06-19T08:41:09.625Z,1009.20
2018-06-19T08:42:09.601Z,1009.27
2018-06-19T08:43:09.602Z,1009.26
2018-06-19T08:44:09.586Z,1009.30
2018-06-19T08:45:09.676Z,1009.29
2018-06-19T08:46:09.612Z,1009.35
2018-06-19T08:47:10.336Z,1009.31
2018-06-19T08:48:09.563Z,1009.33
2018-06-19T08:49:09.540Z,1009.32
2018-06-19T08:50:09.530Z,1009.32
2018-06-19T08:51:09.537Z,1009.33
2018-06-19T08:52:09.514Z,1009.37
2018-06-19T08:53:09.510Z,1009.38
2018-06-19T08:54:09.507Z,1009.37
2018-06-19T08:55:09.512Z,1009.41
2018-06-19T08:56:09.496Z,1009.40
2018-06-19T08:57:09.467Z,1009.41
2018-06-19T08:58:09.468Z,1009.39
2018-06-19T08:59:11.356Z,1009.44
2018-06-19T09:00:09.483Z,1009.45
2018-06-19T09:01:09.436Z,1009.45
2018-06-19T09:02:09.461Z,1009.42
2018-06-19T09:03:09.411Z,1009.45
2018-06-19T09:04:09.410Z,1009.46
2018-06-19T09:05:09.406Z,1009.46
2018-06-19T09:06:09.402Z,1009.48
2018-06-19T09:07:09.490Z,1009.52
2018-06-19T09:08:09.418Z,1009.53
2018-06-19T09:09:09.360Z,1009.52
2018-06-19T09:10:09.354Z,1009.55
2018-06-19T09:11:09.384Z,1009.54
2018-06-19T09:12:09.368Z,1009.58
2018-06-19T09:13:09.338Z,1009.59
2018-06-19T09:14:09.338Z,1009.59
2018-06-19T09:15:09.327Z,1009.58
2018-06-19T09:16:09.349Z,1009.62
2018-06-19T09:17:09.378Z,1009.59
2018-06-19T09:18:09.295Z,1009.59
2018-06-19T09:19:09.356Z,1009.62
2018-06-19T09:20:09.322Z,1009.60
2018-06-19T09:21:09.298Z,1009.61
2018-06-19T09:22:09.868Z,1009.58
2018-06-19T09:23:09.246Z,1009.59
2018-06-19T09:24:09.236Z,1009.60
2018-06-19T09:25:09.236Z,1009.60
2018-06-19T09:26:09.228Z,1009.63
2018-06-19T09:27:09.207Z,1009.59
2018-06-19T09:28:11.856Z,1009.60
2018-06-19T09:29:09.205Z,1009.60
2018-06-19T09:30:09.191Z,1009.60
2018-06-19T09:31:09.187Z,1009.63
2018-06-19T09:32:09.177Z,1009.62
2018-06-19T09:33:09.173Z,1009.64
2018-06-19T09:34:09.152Z,1009.61
2018-06-19T09:35:09.154Z,1009.65
2018-06-19T09:36:09.140Z,1009.67
2018-06-19T09:37:09.127Z,1009.64
2018-06-19T09:38:09.144Z,1009.66
2018-06-19T09:39:09.119Z,1009.68
2018-06-19T09:40:09.138Z,1009.66
2018-06-19T09:41:09.100Z,1009.67
2018-06-19T09:42:09.086Z,1009.67
2018-06-19T09:43:09.087Z,1009.71
2018-06-19T09:44:09.087Z,1009.69
2018-06-19T09:45:09.063Z,1009.69
2018-06-19T09:46:09.060Z,1009.69
2018-06-19T09:47:09.121Z,1009.71
2018-06-19T09:48:09.032Z,1009.75
2018-06-19T09:49:09.031Z,1009.71
2018-06-19T09:50:09.013Z,1009.70
2018-06-19T09:51:09.030Z,1009.74
2018-06-19T09:52:09.010Z,1009.74
2018-06-19T09:53:09.001Z,1009.78
2018-06-19T09:54:09.000Z,1009.73
2018-06-19T09:55:15.025Z,1009.77
2018-06-19T09:56:10.865Z,1009.74
2018-06-19T09:57:08.984Z,1009.77
2018-06-19T09:58:08.948Z,1009.77
2018-06-19T09:59:09.003Z,1009.74
2018-06-19T10:00:08.937Z,1009.76
2018-06-19T10:01:08.925Z,1009.80
2018-06-19T10:02:08.951Z,1009.76
2018-06-19T10:03:09.421Z,1009.73
2018-06-19T10:04:08.906Z,1009.78
2018-06-19T10:05:08.894Z,1009.77
2018-06-19T10:06:08.885Z,1009.77
2018-06-19T10:07:08.891Z,1009.75
2018-06-19T10:08:08.915Z,1009.79
2018-06-19T10:09:08.869Z,1009.76
2018-06-19T10:10:08.855Z,1009.79
2018-06-19T10:11:08.845Z,1009.76
2018-06-19T10:12:09.428Z,1009.78
2018-06-19T10:13:09.378Z,1009.76
2018-06-19T10:14:10.366Z,1009.79
2018-06-19T10:15:08.819Z,1009.77
2018-06-19T10:16:08.806Z,1009.78
2018-06-19T10:17:08.797Z,1009.78
2018-06-19T10:18:08.792Z,1009.77
2018-06-19T10:19:09.458Z,1009.75
2018-06-19T10:20:08.773Z,1009.70
2018-06-19T10:21:08.764Z,1009.72
2018-06-19T10:22:08.751Z,1009.71
2018-06-19T10:23:08.740Z,1009.73
2018-06-19T10:24:08.869Z,1009.71
2018-06-19T10:25:08.736Z,1009.75
2018-06-19T10:26:08.715Z,1009.71
2018-06-19T10:27:08.725Z,1009.75
2018-06-19T10:28:08.697Z,1009.76
2018-06-19T10:29:08.687Z,1009.75
2018-06-19T10:30:08.829Z,1009.77
2018-06-19T10:31:08.795Z,1009.78
2018-06-19T10:32:08.696Z,1009.81
2018-06-19T10:33:08.672Z,1009.80
2018-06-19T10:34:08.665Z,1009.78
2018-06-19T10:35:08.656Z,1009.78
2018-06-19T10:36:08.678Z,1009.79
2018-06-19T10:37:08.706Z,1009.84
2018-06-19T10:38:08.671Z,1009.83
2018-06-19T10:39:08.653Z,1009.80
2018-06-19T10:40:08.867Z,1009.84
2018-06-19T10:41:09.065Z,1009.86
2018-06-19T10:42:09.815Z,1009.81
2018-06-19T10:43:08.582Z,1009.80
2018-06-19T10:44:08.571Z,1009.85
2018-06-19T10:45:08.601Z,1009.83
2018-06-19T10:46:08.650Z,1009.80
2018-06-19T10:47:08.558Z,1009.84
2018-06-19T10:48:08.559Z,1009.83
2018-06-19T10:49:08.530Z,1009.83
2018-06-19T10:50:08.561Z,1009.85
2018-06-19T10:51:08.524Z,1009.85
2018-06-19T10:52:08.554Z,1009.83
2018-06-19T10:53:08.510Z,1009.87
2018-06-19T10:54:08.504Z,1009.88
2018-06-19T10:55:09.377Z,1009.90
2018-06-19T10:56:08.498Z,1009.85
2018-06-19T10:57:08.550Z,1009.84
2018-06-19T10:58:08.476Z,1009.78
2018-06-19T10:59:08.473Z,1009.81
2018-06-19T11:00:08.473Z,1009.83
2018-06-19T11:01:08.451Z,1009.87
2018-06-19T11:02:08.442Z,1009.88
2018-06-19T11:03:08.441Z,1009.88
2018-06-19T11:04:08.448Z,1009.85
2018-06-19T11:05:08.474Z,1009.83
2018-06-19T11:06:08.414Z,1009.82
2018-06-19T11:07:08.568Z,1009.81
2018-06-19T11:08:08.400Z,1009.76
2018-06-19T11:09:08.387Z,1009.77
2018-06-19T11:10:08.375Z,1009.79
2018-06-19T11:11:08.370Z,1009.79
2018-06-19T11:12:08.361Z,1009.85
2018-06-19T11:13:08.512Z,1009.83
2018-06-19T11:14:08.443Z,1009.87
2018-06-19T11:15:08.352Z,1009.85
2018-06-19T11:16:08.338Z,1009.83
2018-06-19T11:17:08.315Z,1009.81
2018-06-19T11:18:08.365Z,1009.80
2018-06-19T11:19:08.909Z,1009.81
2018-06-19T11:20:08.418Z,1009.82
2018-06-19T11:21:08.310Z,1009.82
2018-06-19T11:22:08.303Z,1009.88
2018-06-19T11:23:08.291Z,1009.84
2018-06-19T11:24:08.499Z,1009.87
2018-06-19T11:25:12.434Z,1009.83
2018-06-19T11:26:08.256Z,1009.91
2018-06-19T11:27:08.452Z,1009.82
2018-06-19T11:28:08.252Z,1009.86
2018-06-19T11:29:08.314Z,1009.89
2018-06-19T11:30:08.228Z,1010.00
2018-06-19T11:31:08.377Z,1009.92
2018-06-19T11:32:08.221Z,1009.95
2018-06-19T11:33:08.214Z,1009.94
2018-06-19T11:34:08.193Z,1009.91
2018-06-19T11:35:08.209Z,1010.01
2018-06-19T11:36:08.224Z,1010.49
2018-06-19T11:37:08.216Z,1009.95
2018-06-19T11:38:08.207Z,1009.92
2018-06-19T11:39:08.165Z,1009.94
2018-06-19T11:40:08.169Z,1009.98
2018-06-19T11:41:08.163Z,1009.96
2018-06-19T11:42:08.184Z,1009.99
2018-06-19T11:43:08.217Z,1010.04
2018-06-19T11:44:08.541Z,1010.10
2018-06-19T11:45:08.313Z,1010.08
2018-06-19T11:46:08.134Z,1010.07
2018-06-19T11:47:08.158Z,1010.07
2018-06-19T11:48:08.111Z,1010.03
2018-06-19T11:49:09.952Z,1010.07
2018-06-19T11:50:08.105Z,1010.07
2018-06-19T11:51:08.113Z,1010.07
2018-06-19T11:52:08.341Z,1010.11
2018-06-19T11:53:08.078Z,1010.05
2018-06-19T11:54:08.285Z,1010.05
2018-06-19T11:55:08.071Z,1010.06
2018-06-19T11:56:09.914Z,1010.06
2018-06-19T11:57:08.067Z,1010.03
2018-06-19T11:58:08.071Z,1010.02
2018-06-19T11:59:08.051Z,1010.06
2018-06-19T12:00:08.240Z,1010.09
2018-06-19T12:01:08.056Z,1010.06
2018-06-19T12:02:08.024Z,1010.08
2018-06-19T12:03:08.348Z,1010.04
2018-06-19T12:05:45.962Z,1010.14
2018-06-19T12:07:26.202Z,1010.03
2018-06-19T12:08:25.169Z,1010.09
2018-06-19T12:09:25.168Z,1010.10
2018-06-19T12:10:25.707Z,1010.12
2018-06-19T12:11:25.160Z,1010.17
2018-06-19T12:12:26.100Z,1010.15
2018-06-19T12:13:25.118Z,1010.18
2018-06-19T12:14:25.097Z,1010.19
2018-06-19T12:15:25.699Z,1010.17
2018-06-19T12:16:25.731Z,1010.18
2018-06-19T12:17:27.848Z,1010.10
2018-06-19T12:18:25.425Z,1010.15
2018-06-19T12:19:25.068Z,1010.23
2018-06-19T12:20:25.094Z,1010.22
2018-06-19T12:21:25.737Z,1010.19
2018-06-19T12:22:27.857Z,1010.19
2018-06-19T12:23:29.720Z,1010.20
2018-06-19T12:24:25.027Z,1010.23
2018-06-19T12:25:29.714Z,1010.27
2018-06-19T12:26:25.010Z,1010.23
2018-06-19T12:27:25.241Z,1010.30
2018-06-19T12:28:25.013Z,1010.24
2018-06-19T12:29:25.001Z,1010.27
2018-06-19T12:30:24.996Z,1010.34
2018-06-19T12:31:24.993Z,1010.34
2018-06-19T12:32:25.716Z,1010.28
2018-06-19T12:33:24.967Z,1010.28
2018-06-19T12:34:28.229Z,1010.21
2018-06-19T12:35:25.219Z,1010.24
2018-06-19T12:36:25.856Z,1010.18
2018-06-19T12:37:25.100Z,1010.22
2018-06-19T12:38:24.937Z,1010.22
2018-06-19T12:39:24.922Z,1010.22
2018-06-19T12:40:24.943Z,1010.23
2018-06-19T12:41:24.916Z,1010.25
2018-06-19T12:42:24.947Z,1010.19
2018-06-19T12:43:24.929Z,1010.22
2018-06-19T12:44:25.988Z,1010.19
2018-06-19T12:45:24.921Z,1010.20
2018-06-19T12:46:25.167Z,1010.17
2018-06-19T12:47:24.899Z,1010.19
2018-06-19T12:48:31.756Z,1010.22
2018-06-19T12:49:24.857Z,1010.20
2018-06-19T12:50:25.209Z,1010.20
2018-06-19T12:51:24.833Z,1010.20
2018-06-19T12:52:24.821Z,1010.24
2018-06-19T12:53:24.823Z,1010.24
2018-06-19T12:54:24.825Z,1010.26
2018-06-19T12:55:24.808Z,1010.23
2018-06-19T12:56:25.262Z,1010.21
2018-06-19T12:57:24.840Z,1010.26
2018-06-19T12:58:24.807Z,1010.28
2018-06-19T12:59:24.844Z,1010.28
2018-06-19T13:00:26.723Z,1010.26
2018-06-19T13:01:24.771Z,1010.33
2018-06-19T13:02:24.807Z,1010.30
2018-06-19T13:03:26.745Z,1010.30
2018-06-19T13:04:24.750Z,1010.28
2018-06-19T13:05:25.723Z,1010.26
2018-06-19T13:06:24.737Z,1010.27
2018-06-19T13:07:24.733Z,1010.21
2018-06-19T13:08:24.748Z,1010.25
2018-06-19T13:09:26.237Z,1010.28
2018-06-19T13:10:24.782Z,1010.23
2018-06-19T13:11:24.696Z,1010.27
2018-06-19T13:12:24.711Z,1010.22
2018-06-19T13:13:24.724Z,1010.28
2018-06-19T13:14:24.925Z,1010.26
2018-06-19T13:15:24.678Z,1010.21
2018-06-19T13:16:24.845Z,1010.22
2018-06-19T13:17:24.705Z,1010.13
2018-06-19T13:18:26.559Z,1010.19
2018-06-19T13:19:24.667Z,1010.18
2018-06-19T13:20:31.254Z,1010.23
2018-06-19T13:21:24.720Z,1010.23
2018-06-19T13:22:24.715Z,1010.19
2018-06-19T13:23:24.659Z,1010.24
2018-06-19T13:24:24.754Z,1010.29
2018-06-19T13:25:24.694Z,1010.31
2018-06-19T13:26:46.263Z,1010.34
2018-06-19T13:27:24.585Z,1010.36
2018-06-19T13:28:25.274Z,1010.34
2018-06-19T13:29:24.650Z,1010.24
2018-06-19T13:30:24.612Z,1010.26
2018-06-19T13:31:24.551Z,1010.25
2018-06-19T13:32:25.128Z,1010.22
2018-06-19T13:33:25.227Z,1010.22
2018-06-19T13:34:24.679Z,1010.18
2018-06-19T13:35:25.331Z,1010.19
2018-06-19T13:36:25.255Z,1010.20
2018-06-19T13:37:25.259Z,1010.18
2018-06-19T13:38:24.513Z,1010.15
2018-06-19T13:39:24.562Z,1010.18
2018-06-19T13:40:24.810Z,1010.20
2018-06-19T13:41:24.490Z,1010.17
2018-06-19T13:42:25.254Z,1010.18
2018-06-19T13:43:24.498Z,1010.16
2018-06-19T13:44:24.549Z,1010.20
2018-06-19T13:45:24.460Z,1010.18
2018-06-19T13:46:24.509Z,1010.20
2018-06-19T13:52:00.833Z,1010.20
2018-06-19T13:52:52.656Z,1010.19
2018-06-19T13:53:52.278Z,1010.18
2018-06-19T13:54:52.257Z,1010.22
2018-06-19T13:55:52.351Z,1010.20
2018-06-19T13:56:52.500Z,1010.21
2018-06-19T13:57:52.265Z,1010.24
2018-06-19T13:58:52.819Z,1010.27
2018-06-19T13:59:52.242Z,1010.30
2018-06-19T14:05:04.643Z,1010.27
2018-06-19T14:06:04.153Z,1010.27
2018-06-19T14:18:44.733Z,1010.28
2018-06-19T14:19:44.733Z,1010.24
2018-06-19T14:20:57.694Z,1010.28
2018-06-19T14:21:44.699Z,1010.26
2018-06-19T14:22:46.582Z,1010.25
2018-06-19T14:23:44.699Z,1010.28
2018-06-19T14:24:44.711Z,1010.28
2018-06-19T14:25:46.314Z,1010.30
2018-06-19T14:26:45.577Z,1010.34
2018-06-19T14:27:54.107Z,1010.29
2018-06-19T14:28:44.653Z,1010.21
2018-06-19T14:29:44.770Z,1010.29
2018-06-19T14:30:44.697Z,1010.30
2018-06-19T14:31:44.756Z,1010.30
2018-06-19T14:32:44.752Z,1010.30
2018-06-19T14:33:46.619Z,1010.29
2018-06-19T14:34:44.646Z,1010.25
2018-06-19T14:35:44.697Z,1010.22
2018-06-19T14:36:44.599Z,1010.18
2018-06-19T14:37:44.598Z,1010.24
2018-06-19T14:38:44.585Z,1010.16
2018-06-19T14:39:44.604Z,1010.18
2018-06-19T14:40:45.174Z,1010.24
2018-06-19T14:41:44.581Z,1010.23
2018-06-19T14:42:46.946Z,1010.20
2018-06-19T14:43:44.678Z,1010.32
2018-06-19T14:44:44.605Z,1010.27
2018-06-19T14:45:44.582Z,1010.25
2018-06-19T14:46:44.541Z,1010.24
2018-06-19T14:47:44.529Z,1010.23
2018-06-19T14:48:44.522Z,1010.22
2018-06-19T14:49:44.507Z,1010.20
2018-06-19T14:50:44.568Z,1010.23
2018-06-19T14:51:44.510Z,1010.27
2018-06-19T14:52:44.505Z,1010.21
2018-06-19T14:53:44.495Z,1010.20
2018-06-19T14:54:44.490Z,1010.25